Time;durP1;ratioP1;P1;durP2;ratioP2;P2;SDS_P1;SDS_P2;PMS_P1;PMS_P2;Temp;Humidity;BMP_temperature;BMP_pressure;BME280_temperature;BME280_humidity;BME280_pressure;Samples;Min_cycle;Max_cycle;Signal;HPM_P1;HPM_P2
2022/04/15 00:02:18;;;;;;;34.00;18.98;;;;;;;7.54;100.00;102466.22;5205920;28;20082;-72
2022/04/15 00:04:49;;;;;;;33.75;17.63;;;;;;;7.57;100.00;102463.31;5205968;28;20026;-71
2022/04/15 00:07:19;;;;;;;39.80;18.90;;;;;;;7.59;100.00;102468.56;5206292;28;20029;-72
2022/04/15 00:09:50;;;;;;;40.10;20.65;;;;;;;7.62;100.00;102471.00;5206054;28;20105;-73
2022/04/15 00:12:28;;;;;;;45.63;21.15;;;;;;;7.57;100.00;102470.47;5205530;28;20064;-73
2022/04/15 00:14:58;;;;;;;41.47;20.25;;;;;;;7.53;100.00;102473.38;5205840;28;20033;-72
2022/04/15 00:17:29;;;;;;;43.72;20.80;;;;;;;7.49;100.00;102466.53;5205927;28;20386;-73
2022/04/15 00:19:59;;;;;;;43.30;20.83;;;;;;;7.49;100.00;102461.19;5205900;28;20029;-72
2022/04/15 00:22:30;;;;;;;42.47;21.05;;;;;;;7.47;100.00;102462.25;5205699;28;20014;-73
2022/04/15 00:25:00;;;;;;;41.47;20.50;;;;;;;7.41;100.00;102455.50;5205396;28;20379;-73
2022/04/15 00:27:31;;;;;;;42.80;21.80;;;;;;;7.37;100.00;102459.34;5204563;28;20457;-73
2022/04/15 00:30:02;;;;;;;45.55;20.88;;;;;;;7.37;100.00;102459.34;5205804;28;20029;-74
2022/04/15 00:32:33;;;;;;;34.67;17.33;;;;;;;7.39;100.00;102456.59;5205409;28;20095;-73
2022/04/15 00:35:04;;;;;;;36.50;19.10;;;;;;;7.33;100.00;102460.56;5204184;28;20025;-73
2022/04/15 00:37:35;;;;;;;37.03;18.90;;;;;;;7.26;100.00;102461.91;5202856;28;20018;-73
2022/04/15 00:40:09;;;;;;;40.38;20.83;;;;;;;7.21;100.00;102461.38;5195999;28;20026;-73
2022/04/15 00:42:40;;;;;;;49.47;22.23;;;;;;;7.16;100.00;102463.50;5204752;28;20017;-73
2022/04/15 00:45:10;;;;;;;47.05;23.42;;;;;;;7.17;100.00;102457.19;5205112;28;20506;-73
2022/04/15 00:47:58;;;;;;;46.50;22.27;;;;;;;7.13;100.00;102458.34;5205666;28;20036;-73
2022/04/15 00:50:32;;;;;;;39.60;19.50;;;;;;;7.09;100.00;102465.75;5191970;28;20034;-73
2022/04/15 00:53:08;;;;;;;40.38;20.48;;;;;;;7.08;100.00;102474.72;5205565;28;20072;-73
2022/04/15 00:55:40;;;;;;;51.10;22.60;;;;;;;7.09;100.00;102464.88;5205334;28;20071;-73
2022/04/15 00:58:16;;;;;;;35.08;18.15;;;;;;;7.08;100.00;102468.50;5205201;28;20092;-73
2022/04/15 01:00:47;;;;;;;31.95;15.45;;;;;;;7.04;100.00;102473.22;5205205;28;20087;-73
2022/04/15 01:03:21;;;;;;;33.22;19.10;;;;;;;7.01;100.00;102468.06;5205597;28;20155;-73
2022/04/15 01:05:57;;;;;;;33.83;17.75;;;;;;;6.99;100.00;102476.19;5205378;28;20020;-73
2022/04/15 01:08:29;;;;;;;51.75;26.50;;;;;;;7.04;100.00;102483.03;5205554;28;20390;-73
2022/04/15 01:11:03;;;;;;;51.58;23.05;;;;;;;7.06;100.00;102473.09;5205064;28;20025;-73
2022/04/15 01:13:36;;;;;;;50.45;24.10;;;;;;;7.05;100.00;102480.25;5205197;28;20029;-73
2022/04/15 01:16:08;;;;;;;45.65;23.30;;;;;;;7.07;100.00;102478.31;5204896;28;20018;-73
2022/04/15 01:18:39;;;;;;;40.45;20.38;;;;;;;7.04;100.00;102485.69;5205104;28;20502;-73
2022/04/15 01:21:12;;;;;;;36.75;17.55;;;;;;;7.03;100.00;102481.28;5205012;28;20029;-73
2022/04/15 01:23:42;;;;;;;27.17;14.32;;;;;;;6.96;100.00;102483.53;5202274;28;20025;-73
2022/04/15 01:26:17;;;;;;;30.38;16.42;;;;;;;6.87;100.00;102485.00;5204354;28;20365;-73
2022/04/15 01:28:48;;;;;;;34.28;17.27;;;;;;;6.89;100.00;102480.44;5203803;28;20025;-72
2022/04/15 01:31:18;;;;;;;44.53;21.65;;;;;;;6.85;100.00;102484.25;5204592;28;20490;-72
2022/04/15 01:33:49;;;;;;;53.45;23.90;;;;;;;6.82;100.00;102483.59;5204367;28;20025;-72
2022/04/15 01:36:19;;;;;;;54.80;26.67;;;;;;;6.82;100.00;102488.94;5204461;28;20072;-72
2022/04/15 01:38:51;;;;;;;56.85;26.25;;;;;;;6.81;100.00;102495.22;5204345;28;20064;-73
2022/04/15 01:41:22;;;;;;;489.38;46.20;;;;;;;6.77;100.00;102485.72;5198970;28;20108;-71
2022/04/15 01:43:52;;;;;;;249.25;28.75;;;;;;;6.64;100.00;102485.69;5204954;28;20108;-72
2022/04/15 01:46:23;;;;;;;86.95;22.45;;;;;;;6.52;100.00;102491.78;5202637;28;20117;-72
2022/04/15 01:48:54;;;;;;;294.17;25.58;;;;;;;6.38;100.00;102496.22;5200410;28;20101;-73
2022/04/15 01:51:24;;;;;;;61.90;19.42;;;;;;;6.29;100.00;102496.81;5200900;28;20052;-72
2022/04/15 01:53:55;;;;;;;104.82;20.73;;;;;;;6.20;100.00;102492.06;5204365;28;20104;-73
2022/04/15 01:56:25;;;;;;;258.88;25.10;;;;;;;6.13;100.00;102496.09;5203991;28;20409;-73
2022/04/15 01:58:56;;;;;;;34.40;19.45;;;;;;;6.03;100.00;102497.63;5203963;28;20048;-73
2022/04/15 02:01:27;;;;;;;32.03;17.73;;;;;;;6.00;100.00;102498.66;5202793;28;20017;-73
2022/04/15 02:03:57;;;;;;;45.88;22.38;;;;;;;5.98;100.00;102508.56;5204155;28;20025;-72
2022/04/15 02:06:28;;;;;;;200.13;28.77;;;;;;;5.91;100.00;102510.75;5203840;28;20029;-72
2022/04/15 02:08:59;;;;;;;76.32;22.15;;;;;;;5.91;100.00;102507.19;5204016;28;20105;-72
2022/04/15 02:11:30;;;;;;;65.63;27.55;;;;;;;5.90;100.00;102513.47;5203485;28;20025;-72
2022/04/15 02:14:01;;;;;;;49.78;25.27;;;;;;;5.90;100.00;102519.66;5204068;28;20029;-72
2022/04/15 02:16:31;;;;;;;56.72;26.48;;;;;;;5.90;100.00;102514.31;5204040;28;20437;-73
2022/04/15 02:19:02;;;;;;;53.25;24.50;;;;;;;5.92;100.00;102511.59;5203929;28;20048;-72
2022/04/15 02:21:33;;;;;;;46.70;21.52;;;;;;;5.90;100.00;102517.00;5203745;28;20063;-72
2022/04/15 02:24:04;;;;;;;58.80;26.02;;;;;;;5.92;100.00;102515.13;5201543;28;20041;-72
2022/04/15 02:26:34;;;;;;;61.80;25.58;;;;;;;5.90;100.00;102510.81;5203637;28;20026;-72
2022/04/15 02:29:05;;;;;;;54.60;25.00;;;;;;;5.88;100.00;102518.06;5204067;28;20479;-72
2022/04/15 02:31:35;;;;;;;55.67;23.85;;;;;;;5.88;100.00;102521.56;5204134;28;20014;-71
2022/04/15 02:34:06;;;;;;;49.15;23.83;;;;;;;5.93;100.00;102526.66;5206409;28;20534;-71
2022/04/15 02:36:36;;;;;;;54.35;26.33;;;;;;;5.95;100.00;102524.72;5210511;28;20025;-71
2022/04/15 02:39:10;;;;;;;53.90;25.38;;;;;;;5.95;100.00;102524.72;5208791;28;20483;-71
2022/04/15 02:41:42;;;;;;;52.08;24.95;;;;;;;5.90;100.00;102521.47;5204870;28;20048;-72
2022/04/15 02:44:12;;;;;;;56.70;24.38;;;;;;;5.83;100.00;102531.66;5210335;28;20550;-73
2022/04/15 02:46:43;;;;;;;55.65;23.95;;;;;;;5.78;100.00;102531.06;5210386;28;20120;-72
2022/04/15 02:49:14;;;;;;;57.15;24.90;;;;;;;5.77;100.00;102524.00;5206444;28;20023;-71
2022/04/15 02:51:45;;;;;;;53.47;24.02;;;;;;;5.78;100.00;102524.91;5207686;28;20029;-72
2022/04/15 02:54:15;;;;;;;58.25;25.50;;;;;;;5.79;100.00;102523.94;5210177;28;20021;-72
2022/04/15 02:56:46;;;;;;;50.90;21.98;;;;;;;5.76;100.00;102522.31;5207582;28;20082;-72
2022/04/15 02:59:16;;;;;;;48.45;22.17;;;;;;;5.72;100.00;102523.44;5209104;28;20056;-71
2022/04/15 03:01:49;;;;;;;50.00;22.95;;;;;;;5.73;100.00;102525.19;5210318;28;20026;-72
2022/04/15 03:04:19;;;;;;;45.65;21.13;;;;;;;5.75;100.00;102522.41;5210532;28;20021;-72
2022/04/15 03:06:50;;;;;;;43.30;19.83;;;;;;;5.78;100.00;102522.22;5210194;28;20457;-72
2022/04/15 03:09:21;;;;;;;40.78;19.33;;;;;;;5.79;100.00;102522.13;5210424;28;20021;-72
2022/04/15 03:11:52;;;;;;;32.38;16.20;;;;;;;5.75;100.00;102522.41;5209725;28;20026;-72
2022/04/15 03:14:22;;;;;;;36.70;18.40;;;;;;;5.69;100.00;102520.97;5210385;28;20425;-73
2022/04/15 03:16:53;;;;;;;33.47;16.65;;;;;;;5.67;100.00;102525.53;5210253;28;20060;-73
2022/04/15 03:19:23;;;;;;;43.22;19.30;;;;;;;5.65;100.00;102519.44;5210221;28;20025;-71
2022/04/15 03:21:54;;;;;;;39.63;20.30;;;;;;;5.62;100.00;102516.97;5209992;28;20026;-71
2022/04/15 03:24:24;;;;;;;54.95;24.48;;;;;;;5.64;100.00;102526.59;5209477;28;20079;-72
2022/04/15 03:26:55;;;;;;;54.45;24.30;;;;;;;5.66;100.00;102523.81;5210135;28;20079;-72
2022/04/15 03:29:25;;;;;;;73.72;29.70;;;;;;;5.68;100.00;102524.59;5209820;28;20029;-72
2022/04/15 03:31:56;;;;;;;74.32;31.77;;;;;;;5.72;100.00;102528.75;5210229;28;20022;-72
2022/04/15 03:34:26;;;;;;;60.33;27.55;;;;;;;5.71;100.00;102533.25;5209959;28;20510;-72
2022/04/15 03:36:57;;;;;;;58.50;25.92;;;;;;;5.69;100.00;102531.63;5209957;28;20604;-72
2022/04/15 03:39:27;;;;;;;50.40;22.75;;;;;;;5.67;100.00;102525.53;5210180;28;20052;-72
2022/04/15 03:41:58;;;;;;;80.00;29.80;;;;;;;5.69;100.00;102534.28;5209895;28;20009;-73
2022/04/15 03:44:28;;;;;;;71.53;28.90;;;;;;;5.72;100.00;102539.41;5209805;28;20382;-72
2022/04/15 03:46:59;;;;;;;63.78;28.00;;;;;;;5.67;100.00;102544.16;5205715;28;20021;-72
2022/04/15 03:49:30;;;;;;;63.00;27.60;;;;;;;5.72;100.00;102537.63;5200175;28;20379;-72
2022/04/15 03:52:00;;;;;;;60.83;28.08;;;;;;;5.69;100.00;102539.63;5199552;28;20080;-73
2022/04/15 03:54:31;;;;;;;68.72;31.05;;;;;;;5.69;100.00;102536.97;5206599;28;20068;-71
2022/04/15 03:57:01;;;;;;;56.65;28.85;;;;;;;5.66;100.00;102540.66;5204618;28;20057;-72
2022/04/15 03:59:32;;;;;;;61.10;28.88;;;;;;;5.66;100.00;102542.47;5202313;28;20026;-71
2022/04/15 04:02:02;;;;;;;60.92;26.70;;;;;;;5.61;100.00;102545.41;5202059;28;20021;-72
2022/04/15 04:04:33;;;;;;;57.83;27.25;;;;;;;5.57;100.00;102551.00;5206256;28;20065;-72
2022/04/15 04:07:04;;;;;;;61.15;28.92;;;;;;;5.52;100.00;102550.41;5206350;28;20501;-72
2022/04/15 04:09:34;;;;;;;59.50;29.10;;;;;;;5.48;100.00;102552.44;5205442;28;20033;-73
2022/04/15 04:12:05;;;;;;;58.30;27.45;;;;;;;5.42;100.00;102555.44;5206076;28;20483;-73
2022/04/15 04:14:35;;;;;;;51.30;25.73;;;;;;;5.39;100.00;102559.16;5206406;28;20483;-71
2022/04/15 04:17:06;;;;;;;63.72;27.10;;;;;;;5.34;100.00;102555.91;5206273;28;20104;-71
2022/04/15 04:19:36;;;;;;;56.10;26.75;;;;;;;5.28;100.00;102558.06;5206323;28;20410;-72
2022/04/15 04:22:07;;;;;;;66.22;29.35;;;;;;;5.25;100.00;102564.41;5206297;28;20032;-72
2022/04/15 04:24:37;;;;;;;49.20;23.30;;;;;;;5.17;100.00;102564.88;5205632;28;20056;-73
2022/04/15 04:27:08;;;;;;;49.15;21.45;;;;;;;5.10;100.00;102557.34;5206106;28;20033;-73
2022/04/15 04:29:38;;;;;;;58.03;24.27;;;;;;;5.03;100.00;102572.81;5205865;28;20079;-72
2022/04/15 04:32:08;;;;;;;68.47;28.23;;;;;;;5.00;100.00;102567.66;5206304;28;20113;-72
2022/04/15 04:34:39;;;;;;;64.22;26.90;;;;;;;5.03;100.00;102567.47;5205840;28;20056;-72
2022/04/15 04:37:10;;;;;;;77.57;30.77;;;;;;;5.04;100.00;102563.88;5205630;28;20021;-72
2022/04/15 04:39:40;;;;;;;79.85;34.80;;;;;;;5.08;100.00;102562.75;5205080;28;20164;-73
2022/04/15 04:42:11;;;;;;;79.57;31.40;;;;;;;5.10;100.00;102568.84;5205648;28;20529;-72
2022/04/15 04:44:42;;;;;;;62.95;29.02;;;;;;;5.12;100.00;102572.28;5205579;28;20120;-73
2022/04/15 04:47:12;;;;;;;70.28;30.42;;;;;;;5.16;100.00;102576.44;5205817;28;20053;-71
2022/04/15 04:49:43;;;;;;;73.38;31.83;;;;;;;5.20;100.00;102572.66;5197114;28;20036;-71
2022/04/15 04:52:14;;;;;;;78.07;34.95;;;;;;;5.25;100.00;102576.88;5200306;28;20053;-71
2022/04/15 04:54:44;;;;;;;76.57;32.65;;;;;;;5.32;100.00;102587.09;5205314;28;20025;-71
2022/04/15 04:57:15;;;;;;;88.18;38.10;;;;;;;5.43;100.00;102592.63;5204499;28;20025;-71
2022/04/15 04:59:45;;;;;;;90.90;36.85;;;;;;;5.47;100.00;102590.63;5199383;28;20105;-71
2022/04/15 05:02:16;;;;;;;82.68;35.35;;;;;;;5.49;100.00;102586.09;5200979;28;20045;-71
2022/04/15 05:04:46;;;;;;;85.97;37.22;;;;;;;5.51;100.00;102599.28;5205539;28;20017;-71
2022/04/15 05:07:17;;;;;;;83.63;36.47;;;;;;;5.54;100.00;102589.31;5205576;28;20033;-72
2022/04/15 05:09:47;;;;;;;81.32;33.72;;;;;;;5.57;100.00;102601.59;5205107;28;20037;-72
2022/04/15 05:12:18;;;;;;;72.85;31.23;;;;;;;5.56;100.00;102602.53;5205073;28;20025;-72
2022/04/15 05:14:48;;;;;;;70.25;30.17;;;;;;;5.52;100.00;102604.50;5204935;28;20467;-72
2022/04/15 05:17:19;;;;;;;67.90;30.02;;;;;;;5.53;100.00;102613.38;5205190;28;20367;-72
2022/04/15 05:19:49;;;;;;;65.93;30.05;;;;;;;5.56;100.00;102611.38;5205166;28;20052;-72
2022/04/15 05:22:22;;;;;;;66.68;30.88;;;;;;;5.58;100.00;102608.66;5204918;28;20026;-72
2022/04/15 05:24:53;;;;;;;61.85;27.92;;;;;;;5.56;100.00;102618.50;5204454;28;20107;-72
2022/04/15 05:27:23;;;;;;;57.63;25.42;;;;;;;5.55;100.00;102616.81;5204921;28;20053;-71
2022/04/15 05:29:54;;;;;;;60.92;27.00;;;;;;;5.54;100.00;102629.25;5204874;28;20024;-72
2022/04/15 05:32:24;;;;;;;58.65;27.45;;;;;;;5.55;100.00;102632.78;5204780;28;20032;-71
2022/04/15 05:34:55;;;;;;;58.42;25.90;;;;;;;5.58;100.00;102632.59;5202433;28;20028;-71
2022/04/15 05:37:25;;;;;;;62.67;29.50;;;;;;;5.64;100.00;102635.75;5204214;28;20017;-72
2022/04/15 05:39:55;;;;;;;64.00;28.73;;;;;;;5.72;100.00;102635.28;5202656;28;20033;-72
2022/04/15 05:42:28;;;;;;;63.25;29.88;;;;;;;5.82;100.00;102638.25;5204526;28;20048;-72
2022/04/15 05:44:58;;;;;;;58.83;28.30;;;;;;;5.86;100.00;102640.66;5204269;28;20030;-71
2022/04/15 05:47:29;;;;;;;49.78;24.65;;;;;;;5.92;100.00;102644.78;5204872;28;20506;-72
2022/04/15 05:50:00;;;;;;;40.65;21.45;;;;;;;5.99;100.00;102647.97;5200140;28;20383;-71
2022/04/15 05:52:30;;;;;;;47.33;24.67;;;;;;;6.14;100.00;102636.38;5204105;28;20033;-71
2022/04/15 05:55:00;;;;;;;56.78;27.92;;;;;;;6.48;100.00;102644.00;5204068;28;20394;-71
2022/04/15 05:57:31;;;;;;;67.97;31.95;;;;;;;6.84;100.00;102647.09;5194151;28;20083;-70
2022/04/15 06:00:04;;;;;;;58.15;29.40;;;;;;;7.16;100.00;102653.00;5207208;28;20030;-71
2022/04/15 06:02:35;;;;;;;63.65;29.42;;;;;;;7.40;100.00;102642.53;5204704;28;20025;-71
2022/04/15 06:05:07;;;;;;;63.75;29.98;;;;;;;7.66;100.00;102651.47;5204717;28;20024;-71
2022/04/15 06:07:37;;;;;;;52.85;26.83;;;;;;;7.71;100.00;102657.38;5209816;28;20032;-71
2022/04/15 06:10:08;;;;;;;54.58;25.83;;;;;;;7.94;100.00;102663.84;5211403;28;20410;-71
2022/04/15 06:15:31;;;;;;;56.75;29.15;;;;;;;8.63;100.00;102669.72;5211009;28;20095;-71
2022/04/15 06:18:02;;;;;;;64.28;32.35;;;;;;;9.15;100.00;102672.19;5207936;28;20418;-71
2022/04/15 06:20:34;;;;;;;64.63;32.72;;;;;;;9.62;100.00;102677.66;5200564;28;20553;-71
2022/04/15 06:23:05;;;;;;;61.28;31.88;;;;;;;10.11;100.00;102674.75;5208285;28;20541;-71
2022/04/15 06:25:35;;;;;;;62.60;33.10;;;;;;;10.81;100.00;102671.91;5212895;28;20060;-71
2022/04/15 06:28:06;;;;;;;58.60;31.92;;;;;;;11.43;100.00;102677.63;5209633;28;20067;-71
2022/04/15 06:30:37;;;;;;;54.97;31.40;;;;;;;11.83;100.00;102670.66;5207055;28;20478;-71
2022/04/15 06:33:09;;;;;;;53.20;30.52;;;;;;;12.44;100.00;102681.50;5209938;28;20032;-72
2022/04/15 06:35:39;;;;;;;57.85;31.45;;;;;;;12.84;100.00;102672.59;5200156;28;20099;-72
2022/04/15 06:38:10;;;;;;;51.10;30.08;;;;;;;13.03;100.00;102677.22;5206530;28;20112;-72
2022/04/15 06:40:41;;;;;;;51.03;30.15;;;;;;;13.25;100.00;102680.69;5199914;28;20032;-72
2022/04/15 06:43:11;;;;;;;52.58;28.80;;;;;;;13.38;100.00;102681.28;5202104;28;20048;-72
2022/04/15 06:45:42;;;;;;;50.13;29.58;;;;;;;13.69;100.00;102687.41;5207339;28;20028;-72
2022/04/15 06:48:12;;;;;;;46.30;27.42;;;;;;;13.81;100.00;102688.97;5211199;28;20418;-72
2022/04/15 06:50:43;;;;;;;48.17;28.50;;;;;;;13.92;100.00;102691.50;5213353;28;20029;-72
2022/04/15 06:53:13;;;;;;;46.78;27.35;;;;;;;14.09;100.00;102691.78;5209139;28;20025;-72
2022/04/15 06:55:43;;;;;;;54.55;30.75;;;;;;;14.44;100.00;102688.41;5200789;28;20056;-71
2022/04/15 06:58:14;;;;;;;52.63;30.58;;;;;;;14.34;100.00;102691.16;5204159;28;20091;-72
2022/04/15 07:00:46;;;;;;;54.83;30.25;;;;;;;14.72;100.00;102684.81;5200935;28;20071;-72
2022/04/15 07:03:17;;;;;;;52.90;29.55;;;;;;;14.84;100.00;102685.44;5206497;28;20010;-72
2022/04/15 07:05:47;;;;;;;55.47;30.20;;;;;;;15.28;100.00;102691.88;5205067;28;20517;-72
2022/04/15 07:08:18;;;;;;;54.60;31.42;;;;;;;15.55;100.00;102684.72;5212576;28;20478;-72
2022/04/15 07:10:48;;;;;;;50.63;29.05;;;;;;;15.68;100.00;102685.22;5209398;28;20040;-72
2022/04/15 07:13:19;;;;;;;51.53;28.98;;;;;;;15.95;100.00;102683.41;5206042;28;20026;-72
2022/04/15 07:15:50;;;;;;;52.08;28.85;;;;;;;16.35;100.00;102684.69;5205744;28;20040;-72
2022/04/15 07:18:21;;;;;;;47.47;29.35;;;;;;;16.36;100.00;102689.94;5200661;28;20373;-72
2022/04/15 07:20:51;;;;;;;44.45;26.65;;;;;;;16.55;100.00;102689.72;5199493;28;20037;-72
2022/04/15 07:23:21;;;;;;;48.28;28.10;;;;;;;16.69;100.00;102688.28;5207778;28;20325;-72
2022/04/15 07:25:52;;;;;;;48.20;27.92;;;;;;;16.67;100.00;102694.91;5206146;28;20075;-73
2022/04/15 07:28:22;;;;;;;43.53;25.88;;;;;;;16.48;100.00;102693.25;5209065;28;20098;-72
2022/04/15 07:30:53;;;;;;;39.22;24.40;;;;;;;16.72;100.00;102689.88;5213588;28;20013;-72
2022/04/15 07:33:23;;;;;;;37.35;24.83;;;;;;;16.78;100.00;102692.78;5208617;28;20470;-73
2022/04/15 07:35:54;;;;;;;36.80;23.80;;;;;;;16.69;100.00;102692.88;5208329;28;20052;-72
2022/04/15 07:38:27;;;;;;;37.97;23.77;;;;;;;16.71;100.00;102693.53;5211065;28;20389;-72
2022/04/15 07:40:58;;;;;;;38.00;23.80;;;;;;;16.59;100.00;102695.69;5205941;28;20053;-73
2022/04/15 07:43:28;;;;;;;38.65;23.20;;;;;;;16.73;100.00;102684.28;5213112;28;20052;-73
2022/04/15 07:45:59;;;;;;;42.92;23.13;;;;;;;16.91;100.00;102689.59;5206385;28;20052;-72
2022/04/15 07:48:29;;;;;;;38.25;21.35;;;;;;;17.21;100.00;102698.16;5205693;28;20029;-72
2022/04/15 07:51:00;;;;;;;37.38;22.58;;;;;;;17.22;100.00;102697.16;5212721;28;20059;-73
2022/04/15 07:53:30;;;;;;;35.10;21.00;;;;;;;17.35;100.00;102701.09;5209699;28;20116;-72
2022/04/15 07:56:01;;;;;;;38.33;20.85;;;;;;;17.81;100.00;102703.41;5208758;28;20037;-72
2022/04/15 07:58:32;;;;;;;36.20;20.83;;;;;;;18.20;100.00;102700.00;5208466;28;20504;-73
2022/04/15 08:01:02;;;;;;;29.75;18.50;;;;;;;18.93;100.00;102699.81;5212820;28;20021;-73
2022/04/15 08:03:33;;;;;;;28.13;17.92;;;;;;;18.67;100.00;102707.34;5203947;28;20263;-72
2022/04/15 08:06:04;;;;;;;31.10;19.33;;;;;;;18.74;100.00;102709.25;5213359;28;20029;-73
2022/04/15 08:08:34;;;;;;;30.45;18.08;;;;;;;18.92;100.00;102700.81;5210552;28;20488;-73
2022/04/15 08:11:05;;;;;;;33.65;19.13;;;;;;;18.90;100.00;102705.59;5207120;28;20025;-73
2022/04/15 08:13:36;;;;;;;26.92;18.65;;;;;;;18.78;100.00;102713.31;5207887;28;20051;-72
2022/04/15 08:16:08;;;;;;;31.13;18.67;;;;;;;19.05;100.00;102706.56;5204179;28;20025;-73
2022/04/15 08:18:39;;;;;;;31.67;19.08;;;;;;;19.00;100.00;102710.84;5210952;28;20394;-74
2022/04/15 08:21:10;;;;;;;30.48;20.23;;;;;;;19.45;100.00;102717.41;5208591;28;20021;-73
2022/04/15 08:23:40;;;;;;;32.50;19.83;;;;;;;19.32;100.00;102723.41;5210682;28;20064;-73
2022/04/15 08:26:11;;;;;;;31.20;20.02;;;;;;;19.05;100.00;102725.59;5202835;28;20073;-73
2022/04/15 08:28:42;;;;;;;34.58;22.65;;;;;;;19.19;100.00;102724.00;5210884;28;20443;-73
2022/04/15 08:31:12;;;;;;;41.83;24.65;;;;;;;19.09;100.00;102728.81;5206021;28;20429;-73
2022/04/15 08:33:43;;;;;;;40.55;26.30;;;;;;;18.82;100.00;102738.25;5203513;28;20061;-73
2022/04/15 08:36:13;;;;;;;41.15;25.83;;;;;;;19.12;100.00;102731.16;5199870;28;20108;-73
2022/04/15 08:38:44;;;;;;;35.97;24.05;;;;;;;19.04;100.00;102725.78;5206829;28;20200;-73
2022/04/15 08:41:16;;;;;;;40.03;24.27;;;;;;;18.78;100.00;102726.91;5212949;28;20497;-73
2022/04/15 08:43:47;;;;;;;36.95;24.73;;;;;;;18.70;100.00;102734.22;5210354;28;20548;-73
2022/04/15 08:46:19;;;;;;;34.63;22.80;;;;;;;18.62;100.00;102741.38;5203938;28;20049;-73
2022/04/15 08:48:51;;;;;;;32.72;20.75;;;;;;;18.38;100.00;102746.84;5208299;28;20484;-73
2022/04/15 08:51:21;;;;;;;31.63;19.38;;;;;;;18.40;100.00;102760.25;5208072;28;20368;-73
2022/04/15 08:53:54;;;;;;;28.20;18.48;;;;;;;17.75;100.00;102755.66;5202338;28;20029;-73
2022/04/15 08:56:25;;;;;;;28.42;19.00;;;;;;;17.80;100.00;102762.28;5208349;28;20202;-73
2022/04/15 08:58:56;;;;;;;33.28;19.73;;;;;;;17.51;100.00;102764.56;5214001;28;20484;-73
2022/04/15 09:01:27;;;;;;;27.90;17.92;;;;;;;16.81;100.00;102765.59;5207888;28;20055;-73
2022/04/15 09:03:58;;;;;;;29.65;19.15;;;;;;;16.03;100.00;102768.25;5204832;28;20048;-72
2022/04/15 09:06:31;;;;;;;33.47;20.98;;;;;;;15.21;100.00;102760.22;5210155;28;20029;-72
2022/04/15 09:09:20;;;;;;;31.13;21.00;;;;;;;14.84;100.00;102771.06;5209564;28;20505;-72
2022/04/15 09:11:50;;;;;;;39.58;20.95;;;;;;;14.19;100.00;102777.13;5204419;28;20486;-72
2022/04/15 09:14:21;;;;;;;38.28;21.73;;;;;;;13.94;100.00;102777.69;5211372;28;20027;-72
2022/04/15 09:16:52;;;;;;;39.03;22.27;;;;;;;13.63;100.00;102783.22;5207874;28;20100;-72
2022/04/15 09:19:22;;;;;;;39.05;21.98;;;;;;;13.45;100.00;102787.56;5215303;28;20028;-72
2022/04/15 09:21:55;;;;;;;38.22;20.52;;;;;;;12.83;100.00;102791.25;5205460;28;20561;-72
2022/04/15 09:24:27;;;;;;;34.03;20.83;;;;;;;12.54;100.00;102794.63;5207819;28;20037;-72
2022/04/15 09:27:03;;;;;;;32.60;19.33;;;;;;;12.94;100.00;102797.41;5206448;28;20041;-72
2022/04/15 09:29:35;;;;;;;34.80;20.40;;;;;;;13.18;100.00;102798.94;5213928;28;20399;-72
2022/04/15 09:32:08;;;;;;;31.30;19.60;;;;;;;13.31;100.00;102799.59;5208435;28;20061;-72
2022/04/15 09:35:07;;;;;;;31.20;18.58;;;;;;;13.36;100.00;102799.19;5209419;28;20021;-72
2022/04/15 09:37:40;;;;;;;31.27;18.95;;;;;;;13.25;100.00;102797.44;5205533;28;20037;-72
2022/04/15 09:40:12;;;;;;;37.55;20.58;;;;;;;12.87;100.00;102798.94;5207806;28;20059;-72
2022/04/15 09:42:45;;;;;;;35.33;20.83;;;;;;;12.78;100.00;102797.06;5203220;28;20518;-72
2022/04/15 09:45:18;;;;;;;34.60;20.85;;;;;;;12.76;100.00;102804.44;5203297;28;20453;-72
2022/04/15 09:47:53;;;;;;;34.97;21.10;;;;;;;12.94;100.00;102801.94;5202206;28;20513;-72
2022/04/15 09:50:43;;;;;;;36.17;18.13;;;;;;;13.23;100.00;102796.72;5208084;28;20029;-72
2022/04/15 09:53:17;;;;;;;31.17;17.35;;;;;;;13.32;100.00;102803.16;5207480;28;20595;-72
2022/04/15 09:55:51;;;;;;;31.23;17.57;;;;;;;13.27;100.00;102800.00;5204432;28;20026;-72
2022/04/15 10:01:10;;;;;;;31.92;17.58;;;;;;;13.62;100.00;102797.69;5201721;28;20029;-73
2022/04/15 10:03:45;;;;;;;26.85;17.15;;;;;;;13.39;100.00;102804.28;5209232;28;20052;-72
2022/04/15 10:06:16;;;;;;;28.37;17.77;;;;;;;13.96;100.00;102802.72;5213061;28;20077;-73
2022/04/15 10:08:48;;;;;;;33.10;16.83;;;;;;;14.24;100.00;102807.25;5210836;28;20379;-72
2022/04/15 10:11:19;;;;;;;23.70;16.10;;;;;;;13.91;100.00;102800.44;5210110;28;20207;-72
2022/04/15 10:13:51;;;;;;;25.30;15.52;;;;;;;14.20;100.00;102803.13;5210517;28;20037;-72
2022/04/15 10:16:22;;;;;;;21.60;13.93;;;;;;;14.43;100.00;102802.84;5204466;28;20284;-72
2022/04/15 10:18:53;;;;;;;27.70;16.38;;;;;;;14.93;100.00;102799.91;5215142;28;20474;-72
2022/04/15 10:21:24;;;;;;;27.80;16.58;;;;;;;14.31;100.00;102798.56;5208253;28;20013;-72
2022/04/15 10:23:54;;;;;;;24.50;15.43;;;;;;;14.45;100.00;102800.84;5209059;28;20025;-72
2022/04/15 10:26:25;;;;;;;24.73;16.15;;;;;;;14.45;100.00;102800.84;5203241;28;20116;-72
2022/04/15 10:28:55;;;;;;;23.77;15.75;;;;;;;14.67;100.00;102795.16;5211967;28;20031;-73
2022/04/15 10:31:37;;;;;;;25.52;15.00;;;;;;;14.91;100.00;102799.19;5208920;28;20489;-73
2022/04/15 10:34:11;;;;;;;24.77;15.05;;;;;;;14.40;100.00;102795.00;5205693;28;20056;-73
2022/04/15 10:36:45;;;;;;;26.45;15.40;;;;;;;14.29;100.00;102787.94;5207587;28;20029;-72
2022/04/15 10:39:34;;;;;;;23.08;15.32;;;;;;;14.44;100.00;102794.59;5203434;28;20274;-73
2022/04/15 10:42:05;;;;;;;25.15;15.50;;;;;;;14.67;100.00;102791.59;5210423;28;20033;-72
2022/04/15 10:44:39;;;;;;;24.02;15.15;;;;;;;14.86;100.00;102793.38;5204276;28;20025;-72
2022/04/15 10:47:29;;;;;;;24.65;16.10;;;;;;;14.87;100.00;102795.09;5204916;28;20120;-72
2022/04/15 10:50:04;;;;;;;21.90;15.13;;;;;;;15.02;100.00;102789.06;5199793;28;20026;-72
2022/04/15 10:52:36;;;;;;;24.55;14.98;;;;;;;15.21;100.00;102781.84;5199622;28;20083;-73
2022/04/15 10:55:08;;;;;;;20.90;14.30;;;;;;;15.81;100.00;102784.94;5216398;28;20025;-73
2022/04/15 10:57:41;;;;;;;23.02;14.63;;;;;;;16.29;100.00;102789.97;5203481;28;20397;-73
2022/04/15 11:03:25;;;;;;;21.80;14.38;;;;;;;16.35;100.00;102796.59;5204776;28;20130;-73
2022/04/15 11:05:57;;;;;;;20.92;13.27;;;;;;;16.58;100.00;102789.69;5214163;28;20014;-73
2022/04/15 11:08:28;;;;;;;24.20;13.43;;;;;;;16.85;100.00;102789.69;5206876;28;20029;-73
2022/04/15 11:11:03;;;;;;;22.50;13.35;;;;;;;16.62;100.00;102790.22;5211751;28;20029;-73
2022/04/15 11:14:14;;;;;;;20.98;13.30;;;;;;;16.24;100.00;102789.56;5212839;28;20037;-73
2022/04/15 11:16:46;;;;;;;20.30;13.00;;;;;;;16.34;100.00;102786.78;5213819;28;20079;-73
2022/04/15 11:19:21;;;;;;;24.58;12.90;;;;;;;16.04;100.00;102788.03;5202378;28;20116;-73
2022/04/15 11:21:53;;;;;;;22.05;13.82;;;;;;;15.61;100.00;102789.59;5206616;28;20026;-73
2022/04/15 11:24:27;;;;;;;22.25;14.85;;;;;;;15.35;100.00;102788.63;5205007;28;20021;-73
2022/04/15 11:27:17;;;;;;;20.25;13.23;;;;;;;15.66;100.00;102790.06;5207766;28;20360;-73
2022/04/15 11:29:49;;;;;;;23.85;14.73;;;;;;;15.97;100.00;102789.69;5201360;28;20029;-73
2022/04/15 11:32:19;;;;;;;21.88;14.40;;;;;;;15.94;100.00;102787.28;5203186;28;20191;-73
2022/04/15 11:34:54;;;;;;;23.70;15.10;;;;;;;16.37;100.00;102782.91;5210250;28;20064;-72